sensor_id;sensor_type;location;lat;lon;timestamp;pressure;altitude;pressure_sealevel;temperature;humidity
9423;BME280;65863;49.506;10.400;2024-03-22T00:02:32;98690.78;;;4.83;94.53
9423;BME280;65863;49.506;10.400;2024-03-22T00:05:17;98644.22;;;4.78;95.42
9423;BME280;65863;49.506;10.400;2024-03-22T00:08:03;98600.56;;;4.47;95.76
9423;BME280;65863;49.506;10.400;2024-03-22T00:10:47;98685.56;;;5.03;95.41
9423;BME280;65863;49.506;10.400;2024-03-22T00:13:32;98613.31;;;4.65;95.51
9423;BME280;65863;49.506;10.400;2024-03-22T00:16:16;98694.56;;;5.35;96.39
9423;BME280;65863;49.506;10.400;2024-03-22T00:19:01;98652.25;;;5.31;95.96
9423;BME280;65863;49.506;10.400;2024-03-22T00:21:45;98628.97;;;5.28;95.36
9423;BME280;65863;49.506;10.400;2024-03-22T00:24:29;98651.81;;;5.55;94.62
9423;BME280;65863;49.506;10.400;2024-03-22T00:27:15;98676.94;;;5.83;93.87
9423;BME280;65863;49.506;10.400;2024-03-22T00:29:59;98658.94;;;5.73;93.92
9423;BME280;65863;49.506;10.400;2024-03-22T00:32:43;98669.34;;;5.84;94.25
9423;BME280;65863;49.506;10.400;2024-03-22T00:35:29;98676.19;;;5.94;93.70
9423;BME280;65863;49.506;10.400;2024-03-22T00:38:13;98599.38;;;5.42;93.28
9423;BME280;65863;49.506;10.400;2024-03-22T00:41:00;98625.72;;;5.52;93.73
9423;BME280;65863;49.506;10.400;2024-03-22T00:43:44;98594.56;;;5.43;93.61
9423;BME280;65863;49.506;10.400;2024-03-22T00:46:28;98662.00;;;5.86;93.22
9423;BME280;65863;49.506;10.400;2024-03-22T00:49:12;98636.91;;;5.75;93.14
9423;BME280;65863;49.506;10.400;2024-03-22T00:51:56;98661.22;;;5.69;92.96
9423;BME280;65863;49.506;10.400;2024-03-22T00:54:41;98647.03;;;5.67;92.77
9423;BME280;65863;49.506;10.400;2024-03-22T00:57:25;98636.63;;;5.50;92.56
9423;BME280;65863;49.506;10.400;2024-03-22T01:00:10;98590.97;;;5.14;93.09
9423;BME280;65863;49.506;10.400;2024-03-22T01:02:54;98659.41;;;5.43;92.55
9423;BME280;65863;49.506;10.400;2024-03-22T01:05:40;98637.81;;;5.27;93.23
9423;BME280;65863;49.506;10.400;2024-03-22T01:08:26;98625.44;;;5.28;93.12
9423;BME280;65863;49.506;10.400;2024-03-22T01:11:11;98629.22;;;5.25;93.44
9423;BME280;65863;49.506;10.400;2024-03-22T01:13:57;98627.56;;;4.84;93.06
9423;BME280;65863;49.506;10.400;2024-03-22T01:16:42;98611.19;;;4.48;92.10
9423;BME280;65863;49.506;10.400;2024-03-22T01:19:26;98554.53;;;3.97;91.75
9423;BME280;65863;49.506;10.400;2024-03-22T01:22:11;98612.59;;;4.27;92.96
9423;BME280;65863;49.506;10.400;2024-03-22T01:24:55;98553.97;;;3.87;93.63
9423;BME280;65863;49.506;10.400;2024-03-22T01:27:39;98610.38;;;4.37;94.67
9423;BME280;65863;49.506;10.400;2024-03-22T01:30:23;98598.25;;;4.40;95.09
9423;BME280;65863;49.506;10.400;2024-03-22T01:33:12;98590.88;;;4.31;93.58
9423;BME280;65863;49.506;10.400;2024-03-22T01:35:56;98565.94;;;4.05;93.59
9423;BME280;65863;49.506;10.400;2024-03-22T01:38:40;98476.50;;;3.25;94.13
9423;BME280;65863;49.506;10.400;2024-03-22T01:41:24;98606.25;;;3.89;94.03
9423;BME280;65863;49.506;10.400;2024-03-22T01:44:08;98579.47;;;3.59;94.53
9423;BME280;65863;49.506;10.400;2024-03-22T01:46:52;98575.13;;;3.53;95.55
9423;BME280;65863;49.506;10.400;2024-03-22T01:49:36;98586.06;;;3.36;93.86
9423;BME280;65863;49.506;10.400;2024-03-22T01:52:21;98560.09;;;2.86;93.15
9423;BME280;65863;49.506;10.400;2024-03-22T01:55:06;98548.69;;;2.58;94.03
9423;BME280;65863;49.506;10.400;2024-03-22T01:57:51;98604.25;;;2.90;94.66
9423;BME280;65863;49.506;10.400;2024-03-22T02:00:39;98590.38;;;2.69;94.43
9423;BME280;65863;49.506;10.400;2024-03-22T02:03:23;98578.78;;;2.65;94.33
9423;BME280;65863;49.506;10.400;2024-03-22T02:06:07;98590.06;;;2.62;95.07
9423;BME280;65863;49.506;10.400;2024-03-22T02:08:53;98519.44;;;2.36;94.31
9423;BME280;65863;49.506;10.400;2024-03-22T02:11:39;98529.41;;;2.28;95.82
9423;BME280;65863;49.506;10.400;2024-03-22T02:14:23;98586.94;;;2.95;98.63
9423;BME280;65863;49.506;10.400;2024-03-22T02:17:09;98501.56;;;2.37;99.96
9423;BME280;65863;49.506;10.400;2024-03-22T02:19:53;98577.56;;;2.72;100.00
9423;BME280;65863;49.506;10.400;2024-03-22T02:22:38;98548.69;;;2.58;100.00
9423;BME280;65863;49.506;10.400;2024-03-22T02:25:22;98579.53;;;2.66;100.00
9423;BME280;65863;49.506;10.400;2024-03-22T02:28:06;98572.88;;;2.37;99.29
9423;BME280;65863;49.506;10.400;2024-03-22T02:30:51;98583.56;;;2.29;98.84
9423;BME280;65863;49.506;10.400;2024-03-22T02:33:35;98542.84;;;2.15;99.75
9423;BME280;65863;49.506;10.400;2024-03-22T02:36:19;98526.41;;;2.11;99.28
9423;BME280;65863;49.506;10.400;2024-03-22T02:39:04;98573.72;;;2.28;98.26
9423;BME280;65863;49.506;10.400;2024-03-22T02:41:48;98533.31;;;2.01;98.18
9423;BME280;65863;49.506;10.400;2024-03-22T02:44:32;98548.22;;;2.03;100.00
9423;BME280;65863;49.506;10.400;2024-03-22T02:47:18;98546.13;;;1.98;100.00
9423;BME280;65863;49.506;10.400;2024-03-22T02:50:02;98538.50;;;1.93;100.00
9423;BME280;65863;49.506;10.400;2024-03-22T02:52:46;98523.63;;;1.76;100.00
9423;BME280;65863;49.506;10.400;2024-03-22T02:55:30;98534.13;;;1.71;99.18
9423;BME280;65863;49.506;10.400;2024-03-22T02:58:28;98515.94;;;1.50;99.41
9423;BME280;65863;49.506;10.400;2024-03-22T03:01:12;98520.22;;;1.66;99.41
9423;BME280;65863;49.506;10.400;2024-03-22T03:03:56;98509.66;;;1.49;98.17
9423;BME280;65863;49.506;10.400;2024-03-22T03:06:40;98521.69;;;1.46;99.59
9423;BME280;65863;49.506;10.400;2024-03-22T03:09:26;98488.03;;;1.18;100.00
9423;BME280;65863;49.506;10.400;2024-03-22T03:12:10;98508.78;;;1.43;100.00
9423;BME280;65863;49.506;10.400;2024-03-22T03:14:54;98514.72;;;1.51;100.00
9423;BME280;65863;49.506;10.400;2024-03-22T03:17:38;98522.72;;;1.49;100.00
9423;BME280;65863;49.506;10.400;2024-03-22T03:20:24;98488.13;;;1.09;100.00
9423;BME280;65863;49.506;10.400;2024-03-22T03:23:09;98529.53;;;1.18;100.00
9423;BME280;65863;49.506;10.400;2024-03-22T03:25:55;98533.13;;;1.24;100.00
9423;BME280;65863;49.506;10.400;2024-03-22T03:28:39;98519.31;;;1.39;100.00
9423;BME280;65863;49.506;10.400;2024-03-22T03:31:23;98535.09;;;1.68;100.00
9423;BME280;65863;49.506;10.400;2024-03-22T03:34:07;98527.59;;;1.54;100.00
9423;BME280;65863;49.506;10.400;2024-03-22T03:36:51;98512.72;;;1.36;100.00
9423;BME280;65863;49.506;10.400;2024-03-22T03:39:35;98540.25;;;1.76;100.00
9423;BME280;65863;49.506;10.400;2024-03-22T03:42:20;98539.75;;;1.92;100.00
9423;BME280;65863;49.506;10.400;2024-03-22T03:45:04;98518.97;;;1.67;100.00
9423;BME280;65863;49.506;10.400;2024-03-22T03:47:52;98498.41;;;1.23;100.00
9423;BME280;65863;49.506;10.400;2024-03-22T03:50:36;98526.09;;;1.08;100.00
9423;BME280;65863;49.506;10.400;2024-03-22T03:53:21;98535.81;;;1.03;100.00
9423;BME280;65863;49.506;10.400;2024-03-22T03:56:05;98507.97;;;0.92;99.89
9423;BME280;65863;49.506;10.400;2024-03-22T03:58:49;98523.50;;;0.90;99.34
9423;BME280;65863;49.506;10.400;2024-03-22T04:01:33;98509.53;;;0.69;99.64
9423;BME280;65863;49.506;10.400;2024-03-22T04:04:17;98481.88;;;0.54;100.00
9423;BME280;65863;49.506;10.400;2024-03-22T04:07:01;98523.34;;;0.69;99.79
9423;BME280;65863;49.506;10.400;2024-03-22T04:09:46;98530.28;;;0.64;99.96
9423;BME280;65863;49.506;10.400;2024-03-22T04:12:31;98398.75;;;-0.36;99.84
9423;BME280;65863;49.506;10.400;2024-03-22T04:15:14;98498.16;;;0.52;99.40
9423;BME280;65863;49.506;10.400;2024-03-22T04:18:00;98514.88;;;0.73;99.31
9423;BME280;65863;49.506;10.400;2024-03-22T04:20:55;98521.00;;;0.77;99.45
9423;BME280;65863;49.506;10.400;2024-03-22T04:23:40;98504.94;;;0.66;99.75
9423;BME280;65863;49.506;10.400;2024-03-22T04:26:24;98526.31;;;0.80;100.00
9423;BME280;65863;49.506;10.400;2024-03-22T04:29:08;98535.09;;;0.79;100.00
9423;BME280;65863;49.506;10.400;2024-03-22T04:31:52;98460.03;;;0.17;100.00
9423;BME280;65863;49.506;10.400;2024-03-22T04:34:35;98543.47;;;0.70;100.00
9423;BME280;65863;49.506;10.400;2024-03-22T04:37:20;98527.09;;;0.42;100.00
9423;BME280;65863;49.506;10.400;2024-03-22T04:40:06;98512.41;;;0.36;100.00
9423;BME280;65863;49.506;10.400;2024-03-22T04:42:50;98543.88;;;0.53;100.00
9423;BME280;65863;49.506;10.400;2024-03-22T04:45:34;98465.53;;;0.02;100.00
9423;BME280;65863;49.506;10.400;2024-03-22T04:48:22;98541.75;;;0.72;100.00
9423;BME280;65863;49.506;10.400;2024-03-22T04:51:08;98520.94;;;0.62;100.00
9423;BME280;65863;49.506;10.400;2024-03-22T04:53:52;98519.59;;;0.57;99.52
9423;BME280;65863;49.506;10.400;2024-03-22T04:56:36;98537.13;;;0.54;100.00
9423;BME280;65863;49.506;10.400;2024-03-22T04:59:21;98550.50;;;0.71;100.00
9423;BME280;65863;49.506;10.400;2024-03-22T05:02:05;98510.25;;;0.55;100.00
9423;BME280;65863;49.506;10.400;2024-03-22T05:04:50;98514.81;;;0.43;100.00
9423;BME280;65863;49.506;10.400;2024-03-22T05:07:35;98493.41;;;0.28;100.00
9423;BME280;65863;49.506;10.400;2024-03-22T05:10:20;98471.75;;;0.12;100.00
9423;BME280;65863;49.506;10.400;2024-03-22T05:13:04;98487.19;;;0.43;100.00
9423;BME280;65863;49.506;10.400;2024-03-22T05:15:49;98506.63;;;0.48;100.00
9423;BME280;65863;49.506;10.400;2024-03-22T05:18:33;98524.19;;;0.60;100.00
9423;BME280;65863;49.506;10.400;2024-03-22T05:21:17;98502.84;;;0.61;100.00
9423;BME280;65863;49.506;10.400;2024-03-22T05:24:01;98501.88;;;0.49;99.99
9423;BME280;65863;49.506;10.400;2024-03-22T05:26:45;98487.41;;;0.54;100.00
9423;BME280;65863;49.506;10.400;2024-03-22T05:29:30;98513.13;;;0.60;100.00
9423;BME280;65863;49.506;10.400;2024-03-22T05:32:14;98488.16;;;0.55;100.00
9423;BME280;65863;49.506;10.400;2024-03-22T05:34:58;98471.47;;;0.49;100.00
9423;BME280;65863;49.506;10.400;2024-03-22T05:37:44;98482.84;;;0.66;100.00
9423;BME280;65863;49.506;10.400;2024-03-22T05:40:28;98469.97;;;0.63;100.00
9423;BME280;65863;49.506;10.400;2024-03-22T05:43:13;98440.22;;;0.43;100.00
9423;BME280;65863;49.506;10.400;2024-03-22T05:45:57;98489.25;;;0.87;100.00
9423;BME280;65863;49.506;10.400;2024-03-22T05:48:44;98492.22;;;1.13;100.00
9423;BME280;65863;49.506;10.400;2024-03-22T05:51:28;98418.06;;;0.67;100.00
9423;BME280;65863;49.506;10.400;2024-03-22T05:54:13;98479.31;;;1.40;100.00
9423;BME280;65863;49.506;10.400;2024-03-22T05:56:57;98435.19;;;1.66;100.00
9423;BME280;65863;49.506;10.400;2024-03-22T05:59:41;98477.13;;;2.83;100.00
9423;BME280;65863;49.506;10.400;2024-03-22T06:02:26;98458.50;;;3.15;97.02
9423;BME280;65863;49.506;10.400;2024-03-22T06:05:10;98457.50;;;4.42;93.16
9423;BME280;65863;49.506;10.400;2024-03-22T06:07:54;98482.63;;;4.71;89.02
9423;BME280;65863;49.506;10.400;2024-03-22T06:10:38;98448.19;;;4.51;88.05
9423;BME280;65863;49.506;10.400;2024-03-22T06:13:23;98417.47;;;4.11;88.18
9423;BME280;65863;49.506;10.400;2024-03-22T06:16:07;98442.31;;;4.43;88.03
9423;BME280;65863;49.506;10.400;2024-03-22T06:18:51;98463.38;;;4.61;88.74
9423;BME280;65863;49.506;10.400;2024-03-22T06:21:35;98429.50;;;4.63;89.17
9423;BME280;65863;49.506;10.400;2024-03-22T06:24:19;98420.63;;;4.59;91.67
9423;BME280;65863;49.506;10.400;2024-03-22T06:27:03;98458.13;;;5.09;92.07
9423;BME280;65863;49.506;10.400;2024-03-22T06:29:48;98388.78;;;4.60;92.76
9423;BME280;65863;49.506;10.400;2024-03-22T06:32:31;98422.72;;;4.87;93.36
9423;BME280;65863;49.506;10.400;2024-03-22T06:35:17;98452.31;;;5.24;93.70
9423;BME280;65863;49.506;10.400;2024-03-22T06:38:01;98449.78;;;5.37;93.77
9423;BME280;65863;49.506;10.400;2024-03-22T06:40:48;98442.94;;;5.61;93.50
9423;BME280;65863;49.506;10.400;2024-03-22T06:43:32;98435.59;;;5.69;92.99
9423;BME280;65863;49.506;10.400;2024-03-22T06:46:17;98382.19;;;5.54;92.71
9423;BME280;65863;49.506;10.400;2024-03-22T06:49:01;98437.00;;;6.15;91.37
9423;BME280;65863;49.506;10.400;2024-03-22T06:51:44;98413.44;;;6.11;91.28
9423;BME280;65863;49.506;10.400;2024-03-22T06:54:29;98394.22;;;6.07;91.56
9423;BME280;65863;49.506;10.400;2024-03-22T06:57:13;98416.28;;;6.58;90.93
9423;BME280;65863;49.506;10.400;2024-03-22T06:59:57;98398.03;;;6.51;91.26
9423;BME280;65863;49.506;10.400;2024-03-22T07:02:42;98392.19;;;6.55;90.84
9423;BME280;65863;49.506;10.400;2024-03-22T07:05:26;98428.44;;;6.97;89.85
9423;BME280;65863;49.506;10.400;2024-03-22T07:08:10;98416.50;;;7.02;90.52
9423;BME280;65863;49.506;10.400;2024-03-22T07:10:54;98411.28;;;7.17;90.40
9423;BME280;65863;49.506;10.400;2024-03-22T07:13:38;98417.91;;;7.14;90.18
9423;BME280;65863;49.506;10.400;2024-03-22T07:16:22;98357.63;;;7.00;89.64
9423;BME280;65863;49.506;10.400;2024-03-22T07:19:06;98422.50;;;7.42;89.99
9423;BME280;65863;49.506;10.400;2024-03-22T07:21:51;98399.22;;;7.34;90.17
9423;BME280;65863;49.506;10.400;2024-03-22T07:24:34;98395.88;;;7.66;89.83
9423;BME280;65863;49.506;10.400;2024-03-22T07:27:20;98418.38;;;7.98;88.82
9423;BME280;65863;49.506;10.400;2024-03-22T07:30:04;98356.63;;;7.77;88.68
9423;BME280;65863;49.506;10.400;2024-03-22T07:32:49;98414.53;;;8.45;86.88
9423;BME280;65863;49.506;10.400;2024-03-22T07:35:34;98379.69;;;8.40;84.52
9423;BME280;65863;49.506;10.400;2024-03-22T07:38:19;98417.31;;;8.64;84.05
9423;BME280;65863;49.506;10.400;2024-03-22T07:41:03;98396.38;;;8.71;84.49
9423;BME280;65863;49.506;10.400;2024-03-22T07:43:48;98395.97;;;8.80;84.57
9423;BME280;65863;49.506;10.400;2024-03-22T07:46:32;98374.97;;;8.73;85.46
9423;BME280;65863;49.506;10.400;2024-03-22T07:49:16;98392.81;;;9.03;85.29
9423;BME280;65863;49.506;10.400;2024-03-22T07:52:00;98396.22;;;9.28;83.85
9423;BME280;65863;49.506;10.400;2024-03-22T07:54:44;98393.78;;;9.38;82.79
9423;BME280;65863;49.506;10.400;2024-03-22T07:57:29;98332.44;;;9.34;81.36
9423;BME280;65863;49.506;10.400;2024-03-22T08:00:15;98392.09;;;9.75;80.76
9423;BME280;65863;49.506;10.400;2024-03-22T08:02:58;98371.59;;;9.93;79.63
9423;BME280;65863;49.506;10.400;2024-03-22T08:05:43;98380.53;;;10.19;78.32
9423;BME280;65863;49.506;10.400;2024-03-22T08:08:29;98376.13;;;10.92;77.48
9423;BME280;65863;49.506;10.400;2024-03-22T08:11:13;98375.47;;;11.49;75.74
9423;BME280;65863;49.506;10.400;2024-03-22T08:13:57;98362.28;;;11.94;74.87
9423;BME280;65863;49.506;10.400;2024-03-22T08:16:45;98355.19;;;12.01;73.17
9423;BME280;65863;49.506;10.400;2024-03-22T08:19:31;98341.06;;;11.93;73.47
9423;BME280;65863;49.506;10.400;2024-03-22T08:22:16;98380.69;;;11.95;73.96
9423;BME280;65863;49.506;10.400;2024-03-22T08:24:59;98328.44;;;11.50;74.85
9423;BME280;65863;49.506;10.400;2024-03-22T08:27:46;98374.72;;;11.78;74.75
9423;BME280;65863;49.506;10.400;2024-03-22T08:30:30;98341.44;;;11.61;75.25
9423;BME280;65863;49.506;10.400;2024-03-22T08:33:14;98366.69;;;11.53;75.28
9423;BME280;65863;49.506;10.400;2024-03-22T08:35:58;98378.63;;;11.75;75.40
9423;BME280;65863;49.506;10.400;2024-03-22T08:38:45;98347.13;;;11.68;74.78
9423;BME280;65863;49.506;10.400;2024-03-22T08:41:29;98373.56;;;12.02;74.83
9423;BME280;65863;49.506;10.400;2024-03-22T08:44:13;98378.03;;;12.34;73.77
9423;BME280;65863;49.506;10.400;2024-03-22T08:46:57;98326.63;;;12.33;72.28
9423;BME280;65863;49.506;10.400;2024-03-22T08:49:42;98355.84;;;12.90;71.21
9423;BME280;65863;49.506;10.400;2024-03-22T08:52:29;98341.19;;;13.15;71.56
9423;BME280;65863;49.506;10.400;2024-03-22T08:55:15;98329.56;;;13.41;69.66
9423;BME280;65863;49.506;10.400;2024-03-22T08:57:59;98357.13;;;13.89;68.77
9423;BME280;65863;49.506;10.400;2024-03-22T09:00:44;98344.59;;;14.16;67.94
9423;BME280;65863;49.506;10.400;2024-03-22T09:03:28;98341.66;;;13.98;66.45
9423;BME280;65863;49.506;10.400;2024-03-22T09:06:12;98341.41;;;14.11;67.20
9423;BME280;65863;49.506;10.400;2024-03-22T09:08:56;98349.75;;;14.42;67.01
9423;BME280;65863;49.506;10.400;2024-03-22T09:11:41;98327.00;;;14.40;66.15
9423;BME280;65863;49.506;10.400;2024-03-22T09:14:25;98341.78;;;14.89;65.60
9423;BME280;65863;49.506;10.400;2024-03-22T09:17:09;98327.66;;;15.14;64.49
9423;BME280;65863;49.506;10.400;2024-03-22T09:19:55;98336.50;;;15.19;63.06
9423;BME280;65863;49.506;10.400;2024-03-22T09:22:40;98310.97;;;15.01;61.36
9423;BME280;65863;49.506;10.400;2024-03-22T09:25:23;98314.97;;;15.41;60.08
9423;BME280;65863;49.506;10.400;2024-03-22T09:28:08;98253.03;;;14.67;57.81
9423;BME280;65863;49.506;10.400;2024-03-22T09:30:52;98319.31;;;14.99;58.24
9423;BME280;65863;49.506;10.400;2024-03-22T09:33:36;98319.06;;;14.79;58.56
9423;BME280;65863;49.506;10.400;2024-03-22T09:36:20;98325.53;;;14.97;57.87
9423;BME280;65863;49.506;10.400;2024-03-22T09:39:06;98294.59;;;15.00;55.43
9423;BME280;65863;49.506;10.400;2024-03-22T09:41:53;98300.56;;;15.11;54.67
9423;BME280;65863;49.506;10.400;2024-03-22T09:44:40;98253.31;;;15.04;53.05
9423;BME280;65863;49.506;10.400;2024-03-22T09:47:27;98300.84;;;15.41;54.65
9423;BME280;65863;49.506;10.400;2024-03-22T09:50:12;98297.75;;;15.29;54.05
9423;BME280;65863;49.506;10.400;2024-03-22T09:52:59;98295.53;;;15.45;54.32
9423;BME280;65863;49.506;10.400;2024-03-22T09:55:44;98263.00;;;15.36;51.78
9423;BME280;65863;49.506;10.400;2024-03-22T09:58:29;98278.78;;;15.22;52.89
9423;BME280;65863;49.506;10.400;2024-03-22T10:01:13;98295.75;;;15.22;52.59
9423;BME280;65863;49.506;10.400;2024-03-22T10:03:58;98247.47;;;15.02;49.99
9423;BME280;65863;49.506;10.400;2024-03-22T10:06:42;98277.22;;;15.28;49.95
9423;BME280;65863;49.506;10.400;2024-03-22T10:09:30;98239.19;;;15.04;49.36
9423;BME280;65863;49.506;10.400;2024-03-22T10:12:16;98254.91;;;15.15;49.65
9423;BME280;65863;49.506;10.400;2024-03-22T10:15:00;98223.41;;;15.19;49.84
9423;BME280;65863;49.506;10.400;2024-03-22T10:17:45;98216.91;;;15.61;50.19
9423;BME280;65863;49.506;10.400;2024-03-22T10:20:30;98233.03;;;15.68;50.35
9423;BME280;65863;49.506;10.400;2024-03-22T10:23:16;98250.81;;;16.13;51.25
9423;BME280;65863;49.506;10.400;2024-03-22T10:26:00;98187.81;;;15.95;51.11
9423;BME280;65863;49.506;10.400;2024-03-22T10:28:45;98238.75;;;16.87;49.51
9423;BME280;65863;49.506;10.400;2024-03-22T10:31:29;98222.75;;;16.35;49.11
9423;BME280;65863;49.506;10.400;2024-03-22T10:34:14;98225.88;;;15.84;50.51
9423;BME280;65863;49.506;10.400;2024-03-22T10:37:00;98202.50;;;15.66;51.10
9423;BME280;65863;49.506;10.400;2024-03-22T10:39:46;98206.72;;;15.93;50.67
9423;BME280;65863;49.506;10.400;2024-03-22T10:42:37;98209.81;;;15.87;51.35
9423;BME280;65863;49.506;10.400;2024-03-22T10:45:21;98217.91;;;16.18;49.72
9423;BME280;65863;49.506;10.400;2024-03-22T10:48:10;98186.22;;;16.02;51.70
9423;BME280;65863;49.506;10.400;2024-03-22T10:50:55;98142.66;;;15.97;52.42
9423;BME280;65863;49.506;10.400;2024-03-22T10:53:46;98218.50;;;16.53;53.93
9423;BME280;65863;49.506;10.400;2024-03-22T10:56:31;98170.28;;;16.07;53.82
9423;BME280;65863;49.506;10.400;2024-03-22T10:59:19;98184.59;;;16.36;52.35
9423;BME280;65863;49.506;10.400;2024-03-22T11:02:04;98141.22;;;16.43;53.46
9423;BME280;65863;49.506;10.400;2024-03-22T11:04:56;98178.28;;;16.28;51.98
9423;BME280;65863;49.506;10.400;2024-03-22T11:07:43;98189.34;;;16.80;51.93
9423;BME280;65863;49.506;10.400;2024-03-22T11:10:33;98181.13;;;16.75;51.62
9423;BME280;65863;49.506;10.400;2024-03-22T11:13:18;98187.53;;;16.75;51.78
9423;BME280;65863;49.506;10.400;2024-03-22T11:16:02;98169.59;;;16.53;51.50
9423;BME280;65863;49.506;10.400;2024-03-22T11:18:46;98173.69;;;16.79;51.05
9423;BME280;65863;49.506;10.400;2024-03-22T11:21:32;98157.94;;;16.49;51.42
9423;BME280;65863;49.506;10.400;2024-03-22T11:24:17;98149.50;;;16.78;50.60
9423;BME280;65863;49.506;10.400;2024-03-22T11:27:02;98080.88;;;15.76;50.51
9423;BME280;65863;49.506;10.400;2024-03-22T11:29:46;98104.94;;;15.85;52.62
9423;BME280;65863;49.506;10.400;2024-03-22T11:32:33;98144.94;;;16.36;51.50
9423;BME280;65863;49.506;10.400;2024-03-22T11:35:25;98084.94;;;15.83;50.22
9423;BME280;65863;49.506;10.400;2024-03-22T11:38:09;98062.16;;;15.54;51.34
9423;BME280;65863;49.506;10.400;2024-03-22T11:40:55;98117.19;;;16.25;52.13
9423;BME280;65863;49.506;10.400;2024-03-22T11:43:41;98137.28;;;16.19;52.50
9423;BME280;65863;49.506;10.400;2024-03-22T11:46:26;98123.06;;;16.09;53.06
9423;BME280;65863;49.506;10.400;2024-03-22T11:49:11;98075.19;;;15.66;53.19
9423;BME280;65863;49.506;10.400;2024-03-22T11:51:56;98089.75;;;15.90;53.24
9423;BME280;65863;49.506;10.400;2024-03-22T11:54:40;98113.81;;;16.46;54.39
9423;BME280;65863;49.506;10.400;2024-03-22T11:57:24;98104.97;;;16.32;54.60
9423;BME280;65863;49.506;10.400;2024-03-22T12:00:09;98109.66;;;16.66;54.00
9423;BME280;65863;49.506;10.400;2024-03-22T12:02:58;98074.06;;;16.16;52.91
9423;BME280;65863;49.506;10.400;2024-03-22T12:05:43;98042.84;;;15.97;52.48
9423;BME280;65863;49.506;10.400;2024-03-22T12:08:27;98074.28;;;16.38;53.88
9423;BME280;65863;49.506;10.400;2024-03-22T12:11:11;98095.94;;;16.53;52.95
9423;BME280;65863;49.506;10.400;2024-03-22T12:13:55;98095.47;;;16.57;52.10
9423;BME280;65863;49.506;10.400;2024-03-22T12:16:39;98070.97;;;16.32;52.57
9423;BME280;65863;49.506;10.400;2024-03-22T12:19:23;98082.59;;;16.26;53.01
9423;BME280;65863;49.506;10.400;2024-03-22T12:22:07;98065.22;;;16.59;53.40
9423;BME280;65863;49.506;10.400;2024-03-22T12:24:53;98054.66;;;16.99;52.04
9423;BME280;65863;49.506;10.400;2024-03-22T12:27:37;98007.97;;;17.10;51.46
9423;BME280;65863;49.506;10.400;2024-03-22T12:30:23;98011.94;;;17.16;50.68
9423;BME280;65863;49.506;10.400;2024-03-22T12:33:08;98026.47;;;17.62;50.60
9423;BME280;65863;49.506;10.400;2024-03-22T12:35:54;98011.38;;;17.59;49.17
9423;BME280;65863;49.506;10.400;2024-03-22T12:38:38;98028.56;;;18.02;48.41
9423;BME280;65863;49.506;10.400;2024-03-22T12:41:22;98027.38;;;18.05;48.48
9423;BME280;65863;49.506;10.400;2024-03-22T12:44:06;97973.34;;;17.94;48.66
9423;BME280;65863;49.506;10.400;2024-03-22T12:46:50;98014.84;;;17.48;48.51
9423;BME280;65863;49.506;10.400;2024-03-22T12:49:35;98008.94;;;17.34;49.65
9423;BME280;65863;49.506;10.400;2024-03-22T12:52:19;98023.56;;;17.40;49.85
9423;BME280;65863;49.506;10.400;2024-03-22T12:55:04;97998.25;;;17.13;49.02
9423;BME280;65863;49.506;10.400;2024-03-22T12:57:48;97998.34;;;17.25;48.00
9423;BME280;65863;49.506;10.400;2024-03-22T13:00:32;97999.00;;;17.03;49.33
9423;BME280;65863;49.506;10.400;2024-03-22T13:03:17;97994.91;;;17.36;49.12
9423;BME280;65863;49.506;10.400;2024-03-22T13:06:01;97990.66;;;17.06;47.27
9423;BME280;65863;49.506;10.400;2024-03-22T13:08:45;97992.88;;;16.87;49.58
9423;BME280;65863;49.506;10.400;2024-03-22T13:11:31;97988.25;;;17.12;49.02
9423;BME280;65863;49.506;10.400;2024-03-22T13:14:16;97941.25;;;17.09;48.73
9423;BME280;65863;49.506;10.400;2024-03-22T13:17:00;98004.31;;;17.29;46.71
9423;BME280;65863;49.506;10.400;2024-03-22T13:19:45;97972.25;;;17.16;47.12
9423;BME280;65863;49.506;10.400;2024-03-22T13:22:30;97982.31;;;17.49;46.31
9423;BME280;65863;49.506;10.400;2024-03-22T13:25:14;97933.34;;;17.48;46.06
9423;BME280;65863;49.506;10.400;2024-03-22T13:28:03;97967.84;;;17.76;45.73
9423;BME280;65863;49.506;10.400;2024-03-22T13:30:49;97953.22;;;17.38;45.52
9423;BME280;65863;49.506;10.400;2024-03-22T13:33:33;97944.34;;;17.23;46.50
9423;BME280;65863;49.506;10.400;2024-03-22T13:36:18;97937.59;;;17.28;46.87
9423;BME280;65863;49.506;10.400;2024-03-22T13:39:03;97949.16;;;17.51;46.11
9423;BME280;65863;49.506;10.400;2024-03-22T13:41:48;97956.72;;;17.59;45.96
9423;BME280;65863;49.506;10.400;2024-03-22T13:44:33;97890.16;;;17.18;45.87
9423;BME280;65863;49.506;10.400;2024-03-22T13:47:18;97921.63;;;17.32;45.81
9423;BME280;65863;49.506;10.400;2024-03-22T13:50:06;97944.19;;;17.20;47.15
9423;BME280;65863;49.506;10.400;2024-03-22T13:52:50;97933.31;;;17.17;47.36
9423;BME280;65863;49.506;10.400;2024-03-22T13:55:34;97933.47;;;17.09;47.17
9423;BME280;65863;49.506;10.400;2024-03-22T13:58:19;97940.28;;;17.26;46.60
9423;BME280;65863;49.506;10.400;2024-03-22T14:01:03;97925.88;;;17.02;46.52
9423;BME280;65863;49.506;10.400;2024-03-22T14:03:47;97919.19;;;16.68;45.64
9423;BME280;65863;49.506;10.400;2024-03-22T14:06:32;97930.41;;;16.56;44.79
9423;BME280;65863;49.506;10.400;2024-03-22T14:09:16;97902.38;;;16.41;45.40
9423;BME280;65863;49.506;10.400;2024-03-22T14:12:02;97921.16;;;16.56;45.83
9423;BME280;65863;49.506;10.400;2024-03-22T14:14:47;97895.38;;;16.32;45.99
9423;BME280;65863;49.506;10.400;2024-03-22T14:17:32;97869.00;;;16.00;46.49
9423;BME280;65863;49.506;10.400;2024-03-22T14:20:16;97909.38;;;16.20;46.42
9423;BME280;65863;49.506;10.400;2024-03-22T14:23:00;97903.41;;;16.26;46.36
9423;BME280;65863;49.506;10.400;2024-03-22T14:25:45;97905.81;;;16.39;47.43
9423;BME280;65863;49.506;10.400;2024-03-22T14:28:32;97883.28;;;16.31;47.53
9423;BME280;65863;49.506;10.400;2024-03-22T14:31:17;97842.63;;;16.07;47.92
9423;BME280;65863;49.506;10.400;2024-03-22T14:34:04;97874.38;;;16.35;48.40
9423;BME280;65863;49.506;10.400;2024-03-22T14:36:51;97893.41;;;16.54;48.28
9423;BME280;65863;49.506;10.400;2024-03-22T14:39:35;97886.09;;;16.61;48.69